Time;durP1;ratioP1;P1;durP2;ratioP2;P2;SDS_P1;SDS_P2;PMS_P1;PMS_P2;Temp;Humidity;BMP_temperature;BMP_pressure;BME280_temperature;BME280_humidity;BME280_pressure;Samples;Min_cycle;Max_cycle;Signal;HPM_P1;HPM_P2
2023/11/28 00:00:34;;;;;;;0.70;0.70;;;6.00;99.90;;;;;;5012356;28;20047;-84
2023/11/28 00:03:00;;;;;;;2.63;1.30;;;6.10;99.90;;;;;;5014307;28;20046;-84
2023/11/28 00:05:28;;;;;;;1.77;1.00;;;6.10;99.90;;;;;;5014292;28;20038;-83
2023/11/28 00:07:54;;;;;;;7.20;3.35;;;6.10;99.90;;;;;;5001091;28;20472;-85
2023/11/28 00:10:21;;;;;;;16.83;8.15;;;6.10;99.90;;;;;;5010616;28;20419;-84
2023/11/28 00:12:48;;;;;;;55.40;25.83;;;6.10;99.90;;;;;;4998221;28;20050;-84
2023/11/28 00:15:16;;;;;;;21.20;16.00;;;6.20;99.90;;;;;;5017661;28;20077;-84
2023/11/28 00:17:43;;;;;;;1.60;1.40;;;6.20;99.90;;;;;;5022898;28;20064;-85
2023/11/28 00:20:10;;;;;;;1.20;1.10;;;6.20;99.90;;;;;;5015914;28;20057;-84
2023/11/28 00:22:37;;;;;;;1.13;0.90;;;6.20;99.90;;;;;;5018574;28;20119;-84
2023/11/28 00:25:05;;;;;;;0.80;0.40;;;6.20;99.90;;;;;;5017126;28;20042;-85
2023/11/28 00:27:32;;;;;;;0.30;0.30;;;6.20;99.90;;;;;;5027217;28;20052;-84
2023/11/28 00:29:59;;;;;;;0.40;0.40;;;6.20;99.90;;;;;;5009563;28;20512;-84
2023/11/28 00:32:25;;;;;;;7.30;0.68;;;6.20;99.90;;;;;;5009723;28;20079;-84
2023/11/28 00:34:52;;;;;;;0.60;0.40;;;6.20;99.90;;;;;;5005337;28;20045;-85
2023/11/28 00:37:19;;;;;;;0.43;0.40;;;6.30;99.90;;;;;;5008031;28;20054;-83
2023/11/28 00:39:46;;;;;;;4.15;0.40;;;6.20;99.90;;;;;;5017238;28;20433;-84
2023/11/28 00:42:12;;;;;;;0.50;0.50;;;6.30;99.90;;;;;;4996086;28;20046;-84
2023/11/28 00:44:42;;;;;;;0.45;0.45;;;6.30;99.90;;;;;;5000476;28;20457;-84
2023/11/28 00:47:09;;;;;;;0.40;0.40;;;6.30;99.90;;;;;;4994692;28;20469;-84
2023/11/28 00:49:40;;;;;;;1.95;0.40;;;6.30;99.90;;;;;;4995855;28;20046;-83
2023/11/28 00:52:08;;;;;;;0.80;0.60;;;6.30;99.90;;;;;;4993891;28;20387;-84
2023/11/28 00:54:35;;;;;;;0.50;0.35;;;6.30;99.90;;;;;;5012584;28;20050;-84
2023/11/28 00:57:02;;;;;;;0.63;0.57;;;6.30;99.90;;;;;;5003329;28;20398;-83
2023/11/28 00:59:30;;;;;;;1.02;0.50;;;6.30;99.90;;;;;;5013799;28;20497;-84
2023/11/28 01:01:57;;;;;;;0.50;0.50;;;6.30;99.90;;;;;;5011863;28;20149;-83
2023/11/28 01:04:24;;;;;;;1.23;0.60;;;6.30;99.90;;;;;;5007810;28;20489;-84
2023/11/28 01:06:51;;;;;;;0.82;0.70;;;6.40;99.90;;;;;;5001726;28;20077;-84
2023/11/28 01:09:17;;;;;;;1.38;0.40;;;6.40;99.90;;;;;;5015207;28;20061;-85
2023/11/28 01:11:44;;;;;;;4.03;0.50;;;6.40;99.90;;;;;;5019878;28;20509;-85
2023/11/28 01:14:11;;;;;;;0.40;0.40;;;6.40;99.90;;;;;;5013162;28;20105;-84
2023/11/28 01:16:38;;;;;;;0.65;0.52;;;6.40;99.90;;;;;;5025028;28;20057;-84
2023/11/28 01:19:05;;;;;;;0.40;0.40;;;6.40;99.90;;;;;;5011981;28;20076;-84
2023/11/28 01:21:31;;;;;;;0.30;0.30;;;6.40;99.90;;;;;;5018674;28;20053;-84
2023/11/28 01:23:58;;;;;;;0.40;0.40;;;6.40;99.90;;;;;;5000093;28;20056;-84
2023/11/28 01:26:25;;;;;;;1.42;0.90;;;6.40;99.90;;;;;;5019713;28;20518;-83
2023/11/28 01:28:52;;;;;;;0.38;0.30;;;6.50;99.90;;;;;;5016109;28;20049;-84
2023/11/28 01:31:18;;;;;;;1.25;0.60;;;6.50;99.90;;;;;;5001522;28;20050;-85
2023/11/28 01:33:45;;;;;;;0.57;0.57;;;6.50;99.90;;;;;;4994402;28;20460;-85
2023/11/28 01:36:13;;;;;;;0.50;0.50;;;6.50;99.90;;;;;;5002235;28;20525;-85
2023/11/28 01:38:39;;;;;;;0.50;0.50;;;6.50;99.90;;;;;;5008452;28;20398;-84
2023/11/28 01:41:08;;;;;;;0.60;0.60;;;6.50;99.90;;;;;;5002308;28;20100;-84
2023/11/28 01:43:35;;;;;;;0.63;0.63;;;6.50;99.90;;;;;;5018409;28;20053;-83
2023/11/28 01:46:07;;;;;;;0.47;0.47;;;6.50;99.90;;;;;;5001281;28;20552;-85
2023/11/28 01:48:38;;;;;;;0.60;0.60;;;6.50;99.90;;;;;;5018152;28;20629;-84
2023/11/28 01:51:05;;;;;;;1.45;0.73;;;6.50;99.90;;;;;;5000454;28;20054;-85
2023/11/28 01:53:34;;;;;;;1.77;0.63;;;6.60;99.90;;;;;;5023078;28;20057;-85
2023/11/28 01:56:02;;;;;;;1.75;0.60;;;6.60;99.90;;;;;;5000041;28;20494;-85
2023/11/28 01:58:29;;;;;;;0.52;0.50;;;6.60;99.90;;;;;;5016530;28;20526;-84
2023/11/28 02:00:56;;;;;;;1.17;0.45;;;6.60;99.90;;;;;;5005350;28;20057;-84
2023/11/28 02:03:26;;;;;;;1.05;0.70;;;6.70;99.90;;;;;;5019112;28;20089;-85
2023/11/28 02:05:53;;;;;;;;;;;6.70;99.90;;;;;;5004952;28;20049;-84
2023/11/28 02:08:20;;;;;;;0.50;0.50;;;6.60;99.90;;;;;;5015527;28;19921;-85
2023/11/28 02:10:47;;;;;;;1.50;0.55;;;6.60;99.90;;;;;;5007265;28;20037;-84
2023/11/28 02:13:13;;;;;;;0.60;0.60;;;6.60;99.90;;;;;;5014731;28;20042;-85
2023/11/28 02:15:42;;;;;;;0.82;0.63;;;6.60;99.90;;;;;;5015172;28;20041;-84
2023/11/28 02:18:10;;;;;;;1.33;0.85;;;6.60;99.90;;;;;;5004328;28;20113;-85
2023/11/28 02:20:38;;;;;;;0.82;0.77;;;6.70;99.90;;;;;;5010513;28;20050;-85
2023/11/28 02:23:08;;;;;;;0.60;0.60;;;6.70;99.90;;;;;;5000416;28;20104;-84
2023/11/28 02:25:56;;;;;;;1.20;0.85;;;6.70;99.90;;;;;;5019481;28;20140;-85
2023/11/28 02:28:25;;;;;;;0.50;0.50;;;6.70;99.90;;;;;;5010430;28;20137;-85
2023/11/28 02:30:53;;;;;;;1.50;0.55;;;6.70;99.90;;;;;;5005523;28;20048;-84
2023/11/28 02:33:20;;;;;;;2.80;0.63;;;6.70;99.90;;;;;;4997347;28;20490;-84
2023/11/28 02:35:47;;;;;;;0.52;0.52;;;6.70;99.90;;;;;;4997389;28;20038;-85
2023/11/28 02:38:14;;;;;;;0.70;0.70;;;6.80;99.90;;;;;;5013550;28;20096;-85
2023/11/28 02:40:41;;;;;;;1.75;0.70;;;6.80;99.90;;;;;;5010229;28;20564;-84
2023/11/28 02:43:08;;;;;;;0.98;0.77;;;6.80;99.90;;;;;;5000135;28;20121;-84
2023/11/28 02:45:36;;;;;;;0.55;0.55;;;6.80;99.90;;;;;;5011365;28;20054;-85
2023/11/28 02:48:03;;;;;;;0.75;0.73;;;6.80;99.90;;;;;;5021121;28;20049;-85
2023/11/28 02:50:30;;;;;;;2.25;1.02;;;6.80;99.90;;;;;;5001167;28;20050;-85
2023/11/28 02:52:56;;;;;;;0.68;0.68;;;6.80;99.90;;;;;;5020724;28;20096;-85
2023/11/28 02:55:23;;;;;;;1.33;0.80;;;6.80;99.90;;;;;;4997701;28;20418;-85
2023/11/28 02:57:50;;;;;;;0.70;0.70;;;6.90;99.90;;;;;;5019583;28;20045;-84
2023/11/28 03:00:17;;;;;;;1.98;0.57;;;6.90;99.90;;;;;;4996345;28;20458;-85
2023/11/28 03:02:44;;;;;;;2.55;0.70;;;6.90;99.90;;;;;;5016676;28;20045;-85
2023/11/28 03:05:12;;;;;;;4.43;0.80;;;6.90;99.90;;;;;;5016084;28;20441;-84
2023/11/28 03:07:39;;;;;;;0.77;0.70;;;6.90;99.90;;;;;;5005315;28;20433;-85
2023/11/28 03:10:06;;;;;;;1.00;0.77;;;6.90;99.90;;;;;;5006123;28;20082;-85
2023/11/28 03:12:33;;;;;;;1.45;0.70;;;6.90;99.90;;;;;;5021215;28;20487;-85
2023/11/28 03:15:01;;;;;;;0.60;0.60;;;6.90;99.90;;;;;;5011843;28;20041;-83
2023/11/28 03:17:28;;;;;;;1.05;0.50;;;6.90;99.90;;;;;;5002720;28;20038;-85
2023/11/28 03:19:55;;;;;;;0.63;0.57;;;6.90;99.90;;;;;;5004285;28;20041;-84
2023/11/28 03:22:22;;;;;;;0.77;0.70;;;6.90;99.90;;;;;;5015163;28;20537;-84
2023/11/28 03:24:50;;;;;;;0.75;0.75;;;6.90;99.90;;;;;;5034862;28;20045;-86
2023/11/28 03:27:18;;;;;;;0.73;0.60;;;6.90;99.90;;;;;;5030803;28;20046;-85
2023/11/28 03:29:45;;;;;;;0.60;0.60;;;6.90;99.90;;;;;;5015384;28;20069;-84
2023/11/28 03:32:12;;;;;;;0.85;0.80;;;6.90;99.90;;;;;;5006929;28;20042;-85
2023/11/28 03:34:40;;;;;;;0.60;0.60;;;6.90;99.90;;;;;;5018054;28;20438;-84
2023/11/28 03:37:07;;;;;;;1.05;0.73;;;6.90;99.90;;;;;;5001409;28;20096;-84
2023/11/28 03:39:34;;;;;;;0.68;0.68;;;6.90;99.90;;;;;;4999560;28;20054;-84
2023/11/28 03:42:01;;;;;;;0.60;0.60;;;6.90;99.90;;;;;;5011556;28;20056;-85
2023/11/28 03:44:28;;;;;;;0.55;0.55;;;6.90;99.90;;;;;;4999289;28;20498;-85
2023/11/28 03:46:54;;;;;;;0.68;0.68;;;6.90;99.90;;;;;;5006499;28;20100;-84
2023/11/28 03:49:21;;;;;;;0.70;0.60;;;6.90;99.90;;;;;;4997659;28;20046;-85
2023/11/28 03:51:48;;;;;;;0.70;0.50;;;6.90;99.90;;;;;;5015693;28;20042;-84
2023/11/28 03:54:14;;;;;;;0.60;0.60;;;6.90;99.90;;;;;;5016987;28;20096;-85
2023/11/28 03:56:43;;;;;;;0.68;0.60;;;6.90;99.90;;;;;;5017959;28;20046;-84
2023/11/28 03:59:09;;;;;;;1.33;0.60;;;6.90;99.90;;;;;;5009497;28;20085;-85
2023/11/28 04:01:36;;;;;;;0.52;0.50;;;6.90;99.90;;;;;;5018141;28;20109;-85
2023/11/28 04:04:03;;;;;;;1.00;0.73;;;6.90;99.90;;;;;;4996912;28;20399;-83
2023/11/28 04:06:30;;;;;;;1.92;0.80;;;6.90;99.90;;;;;;5015391;28;20510;-85
2023/11/28 04:08:57;;;;;;;0.60;0.50;;;6.90;99.90;;;;;;5008564;28;20042;-84
2023/11/28 04:11:24;;;;;;;2.10;0.68;;;6.90;99.90;;;;;;5012580;28;20048;-85
2023/11/28 04:13:50;;;;;;;0.82;0.80;;;6.90;99.90;;;;;;4994345;28;20048;-84
2023/11/28 04:16:18;;;;;;;1.02;0.60;;;6.90;99.90;;;;;;4999112;28;20042;-84
2023/11/28 04:18:47;;;;;;;0.70;0.70;;;6.90;99.90;;;;;;5016200;28;20042;-85
2023/11/28 04:21:15;;;;;;;1.02;0.70;;;6.90;99.90;;;;;;4999510;28;20070;-84
2023/11/28 04:23:43;;;;;;;0.93;0.68;;;6.90;99.90;;;;;;5013379;28;20503;-84
2023/11/28 04:26:10;;;;;;;0.70;0.57;;;6.90;99.90;;;;;;4988524;28;20050;-84
2023/11/28 04:28:37;;;;;;;1.85;0.73;;;6.90;99.90;;;;;;5010958;28;20054;-85
2023/11/28 04:31:04;;;;;;;2.50;0.80;;;6.90;99.90;;;;;;5006637;28;20050;-84
2023/11/28 04:33:31;;;;;;;0.73;0.73;;;6.90;99.90;;;;;;5000120;28;20421;-85
2023/11/28 04:35:58;;;;;;;1.30;1.08;;;6.90;99.90;;;;;;5010431;28;20038;-84
2023/11/28 04:38:25;;;;;;;0.80;0.70;;;6.80;99.90;;;;;;5013667;28;20099;-84
2023/11/28 04:40:52;;;;;;;0.80;0.80;;;6.90;99.90;;;;;;5007944;28;20037;-85
2023/11/28 04:43:19;;;;;;;1.23;0.95;;;6.90;99.90;;;;;;5017200;28;20053;-84
2023/11/28 04:45:46;;;;;;;0.80;0.77;;;6.90;99.90;;;;;;5017600;28;20057;-85
2023/11/28 04:48:13;;;;;;;1.23;0.90;;;6.90;99.90;;;;;;5017999;28;20091;-85
2023/11/28 04:50:40;;;;;;;1.60;0.90;;;6.80;99.90;;;;;;5009399;28;20054;-85
2023/11/28 04:53:07;;;;;;;1.10;1.00;;;6.80;99.90;;;;;;5018920;28;20068;-85
2023/11/28 04:55:34;;;;;;;2.05;1.20;;;6.80;99.90;;;;;;5013641;28;20054;-85
2023/11/28 04:58:00;;;;;;;2.08;1.30;;;6.80;99.90;;;;;;4996484;28;20042;-85
2023/11/28 05:00:27;;;;;;;1.73;1.27;;;6.80;99.90;;;;;;5012218;28;20042;-85
2023/11/28 05:02:54;;;;;;;1.65;1.08;;;6.80;99.90;;;;;;4992163;28;20502;-85
2023/11/28 05:05:21;;;;;;;1.00;0.90;;;6.80;99.90;;;;;;4997351;28;20046;-84
2023/11/28 05:07:47;;;;;;;0.98;0.98;;;6.80;99.90;;;;;;5009077;28;20054;-85
2023/11/28 05:10:14;;;;;;;2.88;0.93;;;6.80;99.90;;;;;;5001204;28;20125;-84
2023/11/28 05:12:41;;;;;;;0.88;0.88;;;6.80;99.90;;;;;;5007414;28;20050;-85
2023/11/28 05:15:08;;;;;;;1.05;0.90;;;6.80;99.90;;;;;;4999978;28;20388;-85
2023/11/28 05:17:35;;;;;;;1.30;1.00;;;6.80;99.90;;;;;;5006847;28;20100;-84
2023/11/28 05:20:02;;;;;;;1.45;0.85;;;6.80;99.90;;;;;;4999174;28;20045;-85
2023/11/28 05:22:29;;;;;;;1.50;0.70;;;6.80;99.90;;;;;;5011423;28;20089;-85
2023/11/28 05:24:56;;;;;;;1.05;0.90;;;6.80;99.90;;;;;;5015165;28;20132;-84
2023/11/28 05:27:22;;;;;;;1.15;0.80;;;6.80;99.90;;;;;;5010465;28;20046;-85
2023/11/28 05:29:49;;;;;;;0.95;0.88;;;6.80;99.90;;;;;;5000960;28;20105;-85
2023/11/28 05:32:16;;;;;;;0.93;0.88;;;6.80;99.90;;;;;;4999202;28;20399;-85
2023/11/28 05:34:43;;;;;;;0.82;0.82;;;6.80;99.90;;;;;;4999295;28;20054;-85
2023/11/28 05:37:09;;;;;;;1.30;1.20;;;6.80;99.90;;;;;;5008703;28;20044;-85
2023/11/28 05:39:36;;;;;;;2.38;1.10;;;6.70;99.90;;;;;;4997120;28;20046;-84
2023/11/28 05:42:03;;;;;;;1.88;1.08;;;6.70;99.90;;;;;;5002487;28;20417;-85
2023/11/28 05:44:29;;;;;;;1.73;1.63;;;6.70;99.90;;;;;;5003580;28;20449;-84
2023/11/28 05:46:56;;;;;;;1.70;1.50;;;6.70;99.90;;;;;;4999879;28;20496;-85
2023/11/28 05:49:23;;;;;;;1.63;1.33;;;6.70;99.90;;;;;;5008116;28;20126;-85
2023/11/28 05:51:50;;;;;;;1.38;1.23;;;6.70;99.90;;;;;;5019263;28;20544;-84
2023/11/28 05:54:17;;;;;;;3.08;1.70;;;6.70;99.90;;;;;;5004839;28;20399;-85
2023/11/28 05:56:43;;;;;;;2.28;1.70;;;6.70;99.90;;;;;;5018022;28;20042;-84
2023/11/28 05:59:10;;;;;;;7.85;4.72;;;6.70;99.90;;;;;;5009935;28;20492;-85
2023/11/28 06:02:03;;;;;;;3.67;2.75;;;6.60;99.90;;;;;;5015036;28;20050;-85
2023/11/28 06:04:31;;;;;;;1.23;1.10;;;6.70;99.90;;;;;;5020958;28;20125;-83
2023/11/28 06:06:58;;;;;;;1.10;0.98;;;6.70;99.90;;;;;;5010694;28;20052;-85
2023/11/28 06:09:25;;;;;;;1.65;1.38;;;6.70;99.90;;;;;;5013412;28;20042;-85
2023/11/28 06:11:52;;;;;;;1.77;1.60;;;6.70;99.90;;;;;;5016566;28;20046;-85
2023/11/28 06:14:21;;;;;;;4.18;2.60;;;6.70;99.90;;;;;;5005426;28;20038;-85
2023/11/28 06:16:48;;;;;;;2.47;1.63;;;6.70;99.90;;;;;;5014965;28;20074;-85
2023/11/28 06:19:15;;;;;;;3.67;2.20;;;6.60;99.90;;;;;;5023228;28;20087;-84
2023/11/28 06:21:46;;;;;;;2.20;1.00;;;6.60;99.90;;;;;;5011265;28;20054;-85
2023/11/28 06:24:14;;;;;;;;;;;6.70;99.90;;;;;;5017131;28;20042;-84
2023/11/28 06:26:41;;;;;;;1.63;0.80;;;6.70;99.90;;;;;;5007712;28;19953;-85
2023/11/28 06:29:07;;;;;;;0.77;0.75;;;6.70;99.90;;;;;;5032331;28;20053;-85
2023/11/28 06:31:34;;;;;;;1.10;0.88;;;6.60;99.90;;;;;;5018676;28;20050;-85
2023/11/28 06:34:01;;;;;;;1.25;0.60;;;6.70;99.90;;;;;;5020446;28;20132;-85
2023/11/28 06:36:29;;;;;;;0.60;0.60;;;6.60;99.90;;;;;;5003598;28;20625;-85
2023/11/28 06:38:56;;;;;;;1.58;0.90;;;6.60;99.90;;;;;;5024000;28;20041;-84
2023/11/28 06:41:24;;;;;;;1.83;1.20;;;6.60;99.90;;;;;;5012020;28;20041;-84
2023/11/28 06:43:51;;;;;;;1.05;0.75;;;6.60;99.90;;;;;;5013806;28;20058;-85
2023/11/28 06:46:19;;;;;;;1.50;0.98;;;6.60;99.90;;;;;;5004952;28;20525;-85
2023/11/28 06:48:46;;;;;;;1.23;1.05;;;6.60;99.90;;;;;;4999573;28;20054;-84
2023/11/28 06:51:13;;;;;;;2.85;1.80;;;6.60;99.90;;;;;;5017889;28;20076;-85
2023/11/28 06:53:40;;;;;;;1.85;1.23;;;6.60;99.90;;;;;;5011867;28;20173;-85
2023/11/28 06:56:08;;;;;;;1.48;1.17;;;6.60;99.90;;;;;;5017494;28;20494;-85
2023/11/28 06:58:35;;;;;;;0.80;0.80;;;6.60;99.90;;;;;;5008778;28;20050;-84
2023/11/28 07:01:01;;;;;;;1.90;1.15;;;6.60;99.90;;;;;;4999649;28;20068;-85
2023/11/28 07:03:31;;;;;;;3.22;1.65;;;6.60;99.90;;;;;;5007600;28;20137;-84
2023/11/28 07:05:59;;;;;;;1.42;1.05;;;6.50;99.90;;;;;;5017020;28;20455;-85
2023/11/28 07:08:26;;;;;;;1.58;0.90;;;6.60;99.90;;;;;;5001706;28;20089;-85
2023/11/28 07:10:52;;;;;;;1.30;1.10;;;6.50;99.90;;;;;;5000179;28;20108;-85
2023/11/28 07:13:19;;;;;;;1.40;1.20;;;6.50;99.90;;;;;;5014446;28;20037;-85
2023/11/28 07:15:46;;;;;;;2.10;1.40;;;6.50;99.90;;;;;;4999796;28;20097;-84
2023/11/28 07:18:19;;;;;;;1.77;1.02;;;6.50;99.90;;;;;;5004235;28;20037;-84
2023/11/28 07:20:48;;;;;;;1.88;0.90;;;6.50;99.90;;;;;;5012250;28;20054;-85
2023/11/28 07:23:16;;;;;;;2.63;1.05;;;6.50;99.90;;;;;;5006998;28;20050;-85
2023/11/28 07:25:45;;;;;;;1.25;1.10;;;6.50;99.90;;;;;;5012523;28;20061;-85
2023/11/28 07:28:11;;;;;;;1.58;1.35;;;6.50;99.90;;;;;;5005067;28;20081;-85
2023/11/28 07:30:38;;;;;;;1.13;0.93;;;6.50;99.90;;;;;;4998677;28;20062;-85
2023/11/28 07:33:05;;;;;;;1.48;0.93;;;6.50;99.90;;;;;;5003303;28;20045;-85
2023/11/28 07:35:32;;;;;;;1.65;0.80;;;6.60;99.90;;;;;;5007274;28;20054;-84
2023/11/28 07:37:58;;;;;;;3.60;1.05;;;6.60;99.90;;;;;;5012460;28;20050;-84
2023/11/28 07:40:28;;;;;;;0.90;0.82;;;6.60;99.90;;;;;;5002102;28;20042;-85
2023/11/28 07:42:55;;;;;;;1.73;1.00;;;6.60;99.90;;;;;;5002413;28;20077;-84
2023/11/28 07:45:22;;;;;;;3.55;2.03;;;6.60;99.90;;;;;;5000982;28;20053;-85
2023/11/28 07:47:49;;;;;;;2.30;1.50;;;6.60;99.90;;;;;;5013828;28;20085;-85
2023/11/28 07:50:16;;;;;;;2.03;1.20;;;6.60;99.90;;;;;;5005058;28;20092;-86
2023/11/28 07:52:42;;;;;;;3.20;1.52;;;6.60;99.90;;;;;;5011705;28;20133;-85
2023/11/28 07:55:09;;;;;;;2.85;1.92;;;6.60;99.90;;;;;;5010763;28;20044;-85
2023/11/28 07:57:36;;;;;;;3.13;1.52;;;6.60;99.90;;;;;;4997297;28;20073;-85
2023/11/28 08:00:07;;;;;;;2.58;1.65;;;6.60;99.90;;;;;;5013015;28;20536;-85
2023/11/28 08:02:35;;;;;;;1.52;0.88;;;6.70;99.90;;;;;;5008772;28;20126;-85
2023/11/28 08:05:03;;;;;;;1.88;0.90;;;6.60;99.90;;;;;;5020247;28;20045;-83
2023/11/28 08:07:32;;;;;;;1.83;0.90;;;6.60;99.90;;;;;;4997094;28;20049;-84
2023/11/28 08:10:00;;;;;;;2.33;1.00;;;6.60;99.90;;;;;;5003356;28;20042;-85
2023/11/28 08:12:28;;;;;;;1.10;0.80;;;6.60;99.90;;;;;;5073139;22;20465;-80
2023/11/28 08:14:55;;;;;;;1.90;0.85;;;6.50;99.90;;;;;;5053848;28;20045;-80
2023/11/28 08:17:21;;;;;;;0.57;0.40;;;6.40;99.90;;;;;;5069420;28;20048;-80
2023/11/28 08:19:50;;;;;;;0.60;0.60;;;6.20;99.90;;;;;;5069853;28;20131;-80
2023/11/28 08:22:17;;;;;;;0.57;0.57;;;6.10;99.90;;;;;;5053562;28;20037;-79
2023/11/28 08:24:44;;;;;;;0.55;0.55;;;6.10;99.90;;;;;;5049341;28;20052;-79
2023/11/28 08:27:13;;;;;;;0.93;0.60;;;6.00;99.90;;;;;;5050936;28;20056;-81
2023/11/28 08:29:39;;;;;;;0.68;0.57;;;6.10;99.90;;;;;;5031362;28;20421;-79
2023/11/28 08:32:06;;;;;;;0.57;0.57;;;6.00;99.90;;;;;;5051557;28;20147;-79
2023/11/28 08:34:33;;;;;;;0.63;0.60;;;6.00;99.90;;;;;;5049174;28;20052;-81
2023/11/28 08:37:00;;;;;;;1.50;0.60;;;5.90;99.90;;;;;;5055687;28;20056;-81
2023/11/28 08:39:27;;;;;;;0.75;0.75;;;5.80;99.90;;;;;;5055533;28;20115;-80
2023/11/28 08:41:54;;;;;;;0.70;0.70;;;5.70;99.90;;;;;;5038385;28;20102;-81
2023/11/28 08:44:21;;;;;;;1.33;1.00;;;5.60;99.90;;;;;;5053034;28;20126;-80
2023/11/28 08:46:48;;;;;;;2.05;1.60;;;5.50;99.90;;;;;;5034041;28;20057;-79
2023/11/28 08:49:16;;;;;;;1.02;0.93;;;5.50;99.90;;;;;;5048552;28;20045;-79
2023/11/28 08:51:43;;;;;;;0.90;0.90;;;5.50;99.90;;;;;;5052421;28;20059;-77
2023/11/28 08:54:10;;;;;;;1.10;1.00;;;5.50;99.90;;;;;;5057513;28;20049;-76
2023/11/28 08:56:37;;;;;;;0.80;0.80;;;5.40;99.90;;;;;;5054790;28;20049;-79
2023/11/28 08:59:03;;;;;;;2.45;1.10;;;5.30;99.90;;;;;;5051791;28;20107;-78
2023/11/28 09:01:31;;;;;;;2.38;1.33;;;5.20;99.90;;;;;;5053725;28;20056;-78
2023/11/28 09:04:01;;;;;;;1.75;1.05;;;5.10;99.90;;;;;;5051370;28;20045;-78
2023/11/28 09:06:28;;;;;;;1.50;1.40;;;5.00;99.90;;;;;;5048252;28;20060;-77
2023/11/28 09:08:54;;;;;;;1.77;1.65;;;5.00;99.90;;;;;;5050116;28;20052;-78
2023/11/28 09:11:21;;;;;;;1.65;1.55;;;4.90;99.90;;;;;;5048210;28;20471;-79
2023/11/28 09:13:48;;;;;;;2.40;1.52;;;4.90;99.90;;;;;;5037544;28;20053;-78
2023/11/28 09:16:16;;;;;;;2.00;1.85;;;4.80;99.90;;;;;;5048141;28;20048;-79
2023/11/28 09:18:43;;;;;;;2.90;1.98;;;4.80;99.90;;;;;;5036848;28;20055;-80
2023/11/28 09:21:12;;;;;;;1.48;1.38;;;4.80;99.90;;;;;;5046364;28;20041;-78
2023/11/28 09:23:40;;;;;;;1.95;1.60;;;4.80;99.90;;;;;;5033111;28;20079;-79
2023/11/28 09:26:07;;;;;;;1.58;1.48;;;4.80;99.90;;;;;;5047535;28;20056;-79
2023/11/28 09:28:37;;;;;;;2.30;1.70;;;4.80;99.90;;;;;;5033650;28;20144;-79
2023/11/28 09:31:04;;;;;;;;;;;4.80;99.90;;;;;;5051099;28;20053;-79
2023/11/28 09:33:31;;;;;;;2.28;1.98;;;4.80;99.90;;;;;;5056423;28;19963;-79
2023/11/28 09:35:58;;;;;;;1.58;1.38;;;4.90;99.90;;;;;;5053767;28;20511;-77
2023/11/28 09:38:25;;;;;;;1.73;1.50;;;4.80;99.90;;;;;;5052968;28;20076;-80
2023/11/28 09:40:52;;;;;;;2.22;2.00;;;4.80;99.90;;;;;;5052000;28;20127;-79
2023/11/28 09:43:26;;;;;;;1.60;1.50;;;4.80;99.90;;;;;;5054310;28;20049;-78
2023/11/28 09:45:57;;;;;;;2.95;1.67;;;4.80;99.90;;;;;;5041849;28;20050;-79
2023/11/28 09:48:25;;;;;;;1.60;1.50;;;4.90;99.90;;;;;;5035146;28;20546;-79
2023/11/28 09:50:53;;;;;;;1.80;1.65;;;4.80;99.90;;;;;;5053562;28;20069;-79
2023/11/28 09:53:23;;;;;;;1.70;1.60;;;4.90;99.90;;;;;;5034558;28;20063;-79
2023/11/28 09:55:58;;;;;;;2.00;1.80;;;4.90;99.90;;;;;;5052629;28;20076;-79
2023/11/28 09:58:27;;;;;;;1.60;1.50;;;4.90;99.90;;;;;;5049787;28;20171;-79
2023/11/28 10:00:58;;;;;;;1.73;1.63;;;4.80;99.90;;;;;;5030778;28;20053;-80
2023/11/28 10:03:25;;;;;;;3.53;1.70;;;4.80;99.90;;;;;;5040398;28;20040;-78
2023/11/28 10:05:55;;;;;;;1.90;1.67;;;4.80;99.90;;;;;;5052462;28;20065;-79
2023/11/28 10:08:24;;;;;;;2.67;2.33;;;4.80;99.90;;;;;;5051940;28;20056;-77
2023/11/28 10:10:53;;;;;;;1.85;1.70;;;4.80;99.90;;;;;;5030030;28;20051;-80
2023/11/28 10:13:20;;;;;;;2.70;2.00;;;4.90;99.90;;;;;;5048864;28;20485;-79
2023/11/28 10:15:51;;;;;;;1.88;1.77;;;5.00;99.90;;;;;;5047935;28;20057;-79
2023/11/28 10:18:21;;;;;;;1.92;1.73;;;5.00;99.90;;;;;;5051385;28;20049;-80
2023/11/28 10:20:49;;;;;;;;;;;4.90;99.90;;;;;;5051028;28;20049;-79
2023/11/28 10:23:17;;;;;;;3.13;1.35;;;4.80;99.90;;;;;;5050112;28;19921;-81
2023/11/28 10:25:44;;;;;;;1.15;1.05;;;4.70;99.90;;;;;;5052136;28;20049;-80
2023/11/28 10:28:15;;;;;;;1.25;1.15;;;4.50;99.90;;;;;;5054467;28;20037;-79
2023/11/28 10:30:42;;;;;;;1.52;1.25;;;4.50;99.90;;;;;;5052210;28;20045;-80
2023/11/28 10:33:09;;;;;;;1.55;1.45;;;4.50;99.90;;;;;;5053119;28;20055;-78
2023/11/28 10:35:41;;;;;;;1.75;1.65;;;4.50;99.90;;;;;;5037178;28;20468;-79
2023/11/28 10:38:15;;;;;;;2.88;1.63;;;4.50;99.90;;;;;;5022982;28;20053;-79
2023/11/28 10:40:53;;;;;;;2.58;1.77;;;4.60;99.90;;;;;;5034833;28;20135;-79
2023/11/28 10:43:20;;;;;;;2.17;1.98;;;4.70;99.90;;;;;;5059349;28;20045;-78
2023/11/28 10:45:47;;;;;;;1.90;1.70;;;4.70;99.90;;;;;;5058445;28;20045;-77
2023/11/28 10:48:14;;;;;;;2.50;2.00;;;4.70;99.90;;;;;;5051731;28;20040;-77
2023/11/28 10:50:42;;;;;;;2.58;2.03;;;4.70;99.90;;;;;;5062562;28;20141;-77
2023/11/28 10:53:13;;;;;;;3.67;2.15;;;4.80;99.90;;;;;;5060950;28;20055;-77
2023/11/28 10:55:50;;;;;;;2.55;1.52;;;4.80;99.90;;;;;;5062940;28;20033;-78
2023/11/28 10:58:18;;;;;;;2.13;1.80;;;4.80;99.90;;;;;;5060066;28;20072;-78
2023/11/28 11:00:52;;;;;;;3.20;1.60;;;4.70;99.90;;;;;;5063251;28;20071;-78
2023/11/28 11:03:21;;;;;;;2.45;2.25;;;4.70;99.90;;;;;;5049219;28;20163;-78
2023/11/28 11:05:49;;;;;;;2.55;1.83;;;4.70;99.90;;;;;;5046191;28;20120;-78
2023/11/28 11:08:16;;;;;;;2.08;1.88;;;4.70;99.90;;;;;;5061417;28;20049;-77
2023/11/28 11:10:44;;;;;;;1.92;1.83;;;4.80;99.90;;;;;;5064604;28;20099;-78
2023/11/28 11:13:31;;;;;;;2.38;1.90;;;4.80;99.90;;;;;;5059623;28;20116;-78
2023/11/28 11:16:06;;;;;;;1.80;1.70;;;4.90;99.90;;;;;;5037269;28;20077;-79
2023/11/28 11:18:44;;;;;;;1.83;1.73;;;4.90;99.90;;;;;;5043769;28;20053;-77
2023/11/28 11:21:21;;;;;;;3.00;2.03;;;5.00;99.90;;;;;;5060418;28;20070;-77
2023/11/28 11:23:52;;;;;;;2.05;1.90;;;5.00;99.90;;;;;;5053690;28;20408;-78
2023/11/28 11:26:39;;;;;;;1.85;1.70;;;5.10;99.90;;;;;;5054229;28;20049;-79
2023/11/28 11:29:25;;;;;;;3.13;2.05;;;5.10;99.90;;;;;;5051390;28;20099;-79
2023/11/28 11:31:55;;;;;;;1.70;1.52;;;5.10;99.90;;;;;;5049753;28;20045;-81
2023/11/28 11:34:41;;;;;;;3.47;1.70;;;5.00;99.90;;;;;;5052381;28;20061;-79
2023/11/28 11:37:17;;;;;;;2.08;1.88;;;4.90;99.90;;;;;;5051497;28;20060;-78
2023/11/28 11:39:51;;;;;;;2.83;2.33;;;5.00;99.90;;;;;;5038331;28;20050;-79
2023/11/28 11:42:21;;;;;;;5.95;4.28;;;5.00;99.90;;;;;;5060484;28;20296;-80
2023/11/28 11:45:00;;;;;;;3.75;3.05;;;5.00;99.90;;;;;;5059470;28;20080;-79
2023/11/28 11:47:28;;;;;;;2.88;2.55;;;5.00;99.90;;;;;;5057829;28;20063;-77
2023/11/28 11:49:57;;;;;;;4.68;2.75;;;5.00;99.90;;;;;;5045118;28;20101;-78
2023/11/28 11:52:24;;;;;;;5.95;2.65;;;4.90;99.90;;;;;;5064837;28;20041;-78
2023/11/28 11:55:03;;;;;;;1.90;1.60;;;4.90;99.90;;;;;;5041490;28;20045;-78
2023/11/28 11:57:30;;;;;;;1.65;1.15;;;4.90;99.90;;;;;;5045231;28;20041;-78
2023/11/28 11:59:57;;;;;;;1.08;1.05;;;4.90;99.90;;;;;;5060857;28;20115;-77
2023/11/28 12:02:38;;;;;;;1.58;1.25;;;4.90;99.90;;;;;;5058793;28;20107;-78
2023/11/28 12:05:06;;;;;;;1.55;1.45;;;4.90;99.90;;;;;;5046971;28;20046;-79
2023/11/28 12:07:33;;;;;;;1.63;1.50;;;4.90;99.90;;;;;;5034722;28;20088;-80
2023/11/28 12:10:11;;;;;;;3.10;1.58;;;4.80;99.90;;;;;;5051607;28;20511;-80
2023/11/28 12:12:39;;;;;;;1.38;1.27;;;4.80;99.90;;;;;;5030851;28;20531;-80
2023/11/28 12:15:09;;;;;;;1.60;1.48;;;4.80;99.90;;;;;;5051214;28;20045;-80
2023/11/28 12:17:38;;;;;;;0.90;0.90;;;4.80;99.90;;;;;;5053440;28;20052;-80
2023/11/28 12:20:07;;;;;;;1.20;1.10;;;4.90;99.90;;;;;;5050919;28;20476;-79
2023/11/28 12:22:34;;;;;;;1.60;1.50;;;4.80;99.90;;;;;;5052204;28;20048;-80
2023/11/28 12:25:01;;;;;;;2.13;1.40;;;4.90;99.90;;;;;;5030763;28;20046;-79
2023/11/28 12:27:29;;;;;;;2.20;1.77;;;4.90;99.90;;;;;;5051750;28;20091;-80
2023/11/28 12:29:56;;;;;;;1.50;1.35;;;4.90;99.90;;;;;;5047856;28;20073;-80
2023/11/28 12:32:23;;;;;;;1.30;1.20;;;4.90;99.90;;;;;;5052824;28;20076;-79
2023/11/28 12:34:50;;;;;;;1.20;1.10;;;4.90;99.90;;;;;;5025826;28;20545;-78
2023/11/28 12:37:20;;;;;;;1.45;1.08;;;5.00;99.90;;;;;;5051910;28;20063;-81
2023/11/28 12:39:47;;;;;;;1.58;1.48;;;5.00;99.90;;;;;;5031597;28;20098;-80
2023/11/28 12:42:14;;;;;;;1.33;1.20;;;5.10;99.90;;;;;;5051152;28;20095;-79
2023/11/28 12:44:41;;;;;;;5.10;1.35;;;5.20;99.90;;;;;;5050509;28;20103;-79
2023/11/28 12:47:10;;;;;;;3.22;1.90;;;5.10;99.90;;;;;;5032400;28;20049;-81
2023/11/28 12:49:40;;;;;;;1.70;0.98;;;5.20;99.90;;;;;;5048457;28;20052;-80
2023/11/28 12:52:08;;;;;;;2.05;1.42;;;5.10;99.90;;;;;;5047079;28;20057;-81
2023/11/28 12:54:35;;;;;;;1.67;1.33;;;5.10;99.90;;;;;;5030885;28;20827;-80
2023/11/28 12:57:02;;;;;;;1.70;1.58;;;5.00;99.90;;;;;;5045338;28;20037;-80
2023/11/28 12:59:29;;;;;;;1.42;1.23;;;5.00;99.90;;;;;;5050110;28;20156;-80
2023/11/28 13:01:56;;;;;;;1.40;1.20;;;5.00;99.90;;;;;;5048537;28;20102;-79